sensor_id;sensor_type;location;lat;lon;timestamp;P1;durP1;ratioP1;P2;durP2;ratioP2
83103;SDS011;72975;48.134;11.630;2023-10-31T00:00:56;3.00;;;1.50;;
83103;SDS011;72975;48.134;11.630;2023-10-31T00:03:23;2.10;;;1.23;;
83103;SDS011;72975;48.134;11.630;2023-10-31T00:05:55;4.32;;;1.08;;
83103;SDS011;72975;48.134;11.630;2023-10-31T00:08:22;2.33;;;1.02;;
83103;SDS011;72975;48.134;11.630;2023-10-31T00:10:50;1.90;;;0.98;;
83103;SDS011;72975;48.134;11.630;2023-10-31T00:13:17;1.92;;;1.00;;
83103;SDS011;72975;48.134;11.630;2023-10-31T00:15:44;1.95;;;0.90;;
83103;SDS011;72975;48.134;11.630;2023-10-31T00:18:12;2.45;;;0.70;;
83103;SDS011;72975;48.134;11.630;2023-10-31T00:20:39;1.77;;;1.05;;
83103;SDS011;72975;48.134;11.630;2023-10-31T00:23:06;1.67;;;0.73;;
83103;SDS011;72975;48.134;11.630;2023-10-31T00:25:33;1.42;;;0.70;;
83103;SDS011;72975;48.134;11.630;2023-10-31T00:28:00;2.05;;;0.60;;
83103;SDS011;72975;48.134;11.630;2023-10-31T00:30:32;1.75;;;0.70;;
83103;SDS011;72975;48.134;11.630;2023-10-31T00:33:02;0.93;;;0.52;;
83103;SDS011;72975;48.134;11.630;2023-10-31T00:35:29;1.38;;;0.60;;
83103;SDS011;72975;48.134;11.630;2023-10-31T00:37:57;1.50;;;0.80;;
83103;SDS011;72975;48.134;11.630;2023-10-31T00:40:24;2.40;;;0.60;;
83103;SDS011;72975;48.134;11.630;2023-10-31T00:42:50;1.52;;;0.75;;
83103;SDS011;72975;48.134;11.630;2023-10-31T00:45:17;1.85;;;0.73;;
83103;SDS011;72975;48.134;11.630;2023-10-31T00:47:44;1.98;;;0.70;;
83103;SDS011;72975;48.134;11.630;2023-10-31T00:50:11;1.90;;;0.85;;
83103;SDS011;72975;48.134;11.630;2023-10-31T00:52:38;1.58;;;0.73;;
83103;SDS011;72975;48.134;11.630;2023-10-31T00:55:05;1.95;;;0.75;;
83103;SDS011;72975;48.134;11.630;2023-10-31T00:57:32;3.03;;;0.50;;
83103;SDS011;72975;48.134;11.630;2023-10-31T00:59:59;1.13;;;0.63;;
83103;SDS011;72975;48.134;11.630;2023-10-31T01:02:26;1.20;;;0.70;;
83103;SDS011;72975;48.134;11.630;2023-10-31T01:04:53;0.93;;;0.60;;
83103;SDS011;72975;48.134;11.630;2023-10-31T01:07:20;1.10;;;0.50;;
83103;SDS011;72975;48.134;11.630;2023-10-31T01:09:47;1.05;;;0.70;;
83103;SDS011;72975;48.134;11.630;2023-10-31T01:12:16;3.33;;;0.55;;
83103;SDS011;72975;48.134;11.630;2023-10-31T01:14:43;0.93;;;0.40;;
83103;SDS011;72975;48.134;11.630;2023-10-31T01:17:12;0.82;;;0.40;;
83103;SDS011;72975;48.134;11.630;2023-10-31T01:19:39;0.88;;;0.50;;
83103;SDS011;72975;48.134;11.630;2023-10-31T01:22:09;1.38;;;0.50;;
83103;SDS011;72975;48.134;11.630;2023-10-31T01:24:37;1.08;;;0.60;;
83103;SDS011;72975;48.134;11.630;2023-10-31T01:27:04;1.25;;;0.52;;
83103;SDS011;72975;48.134;11.630;2023-10-31T01:29:31;1.08;;;0.40;;
83103;SDS011;72975;48.134;11.630;2023-10-31T01:32:01;1.17;;;0.63;;
83103;SDS011;72975;48.134;11.630;2023-10-31T01:34:35;1.45;;;0.52;;
83103;SDS011;72975;48.134;11.630;2023-10-31T01:37:02;0.73;;;0.40;;
83103;SDS011;72975;48.134;11.630;2023-10-31T01:39:28;1.83;;;0.68;;
83103;SDS011;72975;48.134;11.630;2023-10-31T01:41:55;3.20;;;1.20;;
83103;SDS011;72975;48.134;11.630;2023-10-31T01:44:22;1.20;;;0.50;;
83103;SDS011;72975;48.134;11.630;2023-10-31T01:46:49;1.45;;;0.60;;
83103;SDS011;72975;48.134;11.630;2023-10-31T01:49:16;1.60;;;0.82;;
83103;SDS011;72975;48.134;11.630;2023-10-31T01:51:44;1.85;;;0.82;;
83103;SDS011;72975;48.134;11.630;2023-10-31T01:54:12;1.38;;;0.50;;
83103;SDS011;72975;48.134;11.630;2023-10-31T01:56:41;1.65;;;0.60;;
83103;SDS011;72975;48.134;11.630;2023-10-31T01:59:09;2.17;;;0.70;;
83103;SDS011;72975;48.134;11.630;2023-10-31T02:01:38;1.40;;;0.70;;
83103;SDS011;72975;48.134;11.630;2023-10-31T02:04:08;2.75;;;0.60;;
83103;SDS011;72975;48.134;11.630;2023-10-31T02:06:35;1.10;;;0.50;;
83103;SDS011;72975;48.134;11.630;2023-10-31T02:09:02;1.30;;;0.50;;
83103;SDS011;72975;48.134;11.630;2023-10-31T02:11:32;1.48;;;0.70;;
83103;SDS011;72975;48.134;11.630;2023-10-31T02:13:59;1.13;;;0.52;;
83103;SDS011;72975;48.134;11.630;2023-10-31T02:16:27;0.88;;;0.45;;
83103;SDS011;72975;48.134;11.630;2023-10-31T02:18:54;1.25;;;0.52;;
83103;SDS011;72975;48.134;11.630;2023-10-31T02:21:21;1.60;;;0.52;;
83103;SDS011;72975;48.134;11.630;2023-10-31T02:26:31;0.85;;;0.52;;
83103;SDS011;72975;48.134;11.630;2023-10-31T02:29:01;0.60;;;0.30;;
83103;SDS011;72975;48.134;11.630;2023-10-31T02:31:28;1.63;;;0.47;;
83103;SDS011;72975;48.134;11.630;2023-10-31T02:33:55;0.98;;;0.47;;
83103;SDS011;72975;48.134;11.630;2023-10-31T02:36:22;0.68;;;0.40;;
83103;SDS011;72975;48.134;11.630;2023-10-31T02:38:49;1.20;;;0.50;;
83103;SDS011;72975;48.134;11.630;2023-10-31T02:41:16;1.00;;;0.40;;
83103;SDS011;72975;48.134;11.630;2023-10-31T02:43:43;0.60;;;0.40;;
83103;SDS011;72975;48.134;11.630;2023-10-31T02:46:10;0.75;;;0.55;;
83103;SDS011;72975;48.134;11.630;2023-10-31T02:48:41;0.55;;;0.32;;
83103;SDS011;72975;48.134;11.630;2023-10-31T02:51:10;0.60;;;0.47;;
83103;SDS011;72975;48.134;11.630;2023-10-31T02:53:37;1.42;;;0.40;;
83103;SDS011;72975;48.134;11.630;2023-10-31T02:56:04;0.88;;;0.52;;
83103;SDS011;72975;48.134;11.630;2023-10-31T02:58:32;1.02;;;0.52;;
83103;SDS011;72975;48.134;11.630;2023-10-31T03:00:59;1.77;;;0.88;;
83103;SDS011;72975;48.134;11.630;2023-10-31T03:03:26;1.08;;;0.55;;
83103;SDS011;72975;48.134;11.630;2023-10-31T03:05:53;0.65;;;0.32;;
83103;SDS011;72975;48.134;11.630;2023-10-31T03:08:20;1.63;;;0.65;;
83103;SDS011;72975;48.134;11.630;2023-10-31T03:10:47;0.65;;;0.32;;
83103;SDS011;72975;48.134;11.630;2023-10-31T03:13:19;0.90;;;0.63;;
83103;SDS011;72975;48.134;11.630;2023-10-31T03:15:48;0.70;;;0.40;;
83103;SDS011;72975;48.134;11.630;2023-10-31T03:18:15;0.50;;;0.30;;
83103;SDS011;72975;48.134;11.630;2023-10-31T03:20:45;1.25;;;0.80;;
83103;SDS011;72975;48.134;11.630;2023-10-31T03:23:13;1.88;;;0.55;;
83103;SDS011;72975;48.134;11.630;2023-10-31T03:25:40;0.77;;;0.30;;
83103;SDS011;72975;48.134;11.630;2023-10-31T03:28:20;0.47;;;0.32;;
83103;SDS011;72975;48.134;11.630;2023-10-31T03:30:50;0.82;;;0.40;;
83103;SDS011;72975;48.134;11.630;2023-10-31T03:33:17;0.60;;;0.52;;
83103;SDS011;72975;48.134;11.630;2023-10-31T03:35:44;0.60;;;0.40;;
83103;SDS011;72975;48.134;11.630;2023-10-31T03:38:12;1.75;;;0.73;;
83103;SDS011;72975;48.134;11.630;2023-10-31T03:40:38;0.85;;;0.52;;
83103;SDS011;72975;48.134;11.630;2023-10-31T03:43:06;2.75;;;0.52;;
83103;SDS011;72975;48.134;11.630;2023-10-31T03:45:37;1.08;;;0.52;;
83103;SDS011;72975;48.134;11.630;2023-10-31T03:48:09;1.27;;;0.60;;
83103;SDS011;72975;48.134;11.630;2023-10-31T03:50:36;5.15;;;1.35;;
83103;SDS011;72975;48.134;11.630;2023-10-31T03:53:07;1.05;;;0.55;;
83103;SDS011;72975;48.134;11.630;2023-10-31T03:55:34;0.88;;;0.40;;
83103;SDS011;72975;48.134;11.630;2023-10-31T03:58:01;1.73;;;0.63;;
83103;SDS011;72975;48.134;11.630;2023-10-31T04:00:28;1.23;;;0.52;;
83103;SDS011;72975;48.134;11.630;2023-10-31T04:02:56;1.00;;;0.45;;
83103;SDS011;72975;48.134;11.630;2023-10-31T04:05:23;0.95;;;0.50;;
83103;SDS011;72975;48.134;11.630;2023-10-31T04:07:51;1.02;;;0.50;;
83103;SDS011;72975;48.134;11.630;2023-10-31T04:10:18;1.13;;;0.70;;
83103;SDS011;72975;48.134;11.630;2023-10-31T04:12:45;0.98;;;0.52;;
83103;SDS011;72975;48.134;11.630;2023-10-31T04:15:15;1.67;;;0.65;;
83103;SDS011;72975;48.134;11.630;2023-10-31T04:17:44;1.00;;;0.65;;
83103;SDS011;72975;48.134;11.630;2023-10-31T04:20:20;1.20;;;0.80;;
83103;SDS011;72975;48.134;11.630;2023-10-31T04:22:58;1.15;;;0.63;;
83103;SDS011;72975;48.134;11.630;2023-10-31T04:25:34;0.70;;;0.43;;
83103;SDS011;72975;48.134;11.630;2023-10-31T04:28:02;2.85;;;0.88;;
83103;SDS011;72975;48.134;11.630;2023-10-31T04:30:34;1.55;;;0.60;;
83103;SDS011;72975;48.134;11.630;2023-10-31T04:33:05;1.13;;;0.52;;
83103;SDS011;72975;48.134;11.630;2023-10-31T04:35:33;3.17;;;0.75;;
83103;SDS011;72975;48.134;11.630;2023-10-31T04:38:01;1.35;;;0.73;;
83103;SDS011;72975;48.134;11.630;2023-10-31T04:40:28;1.65;;;0.63;;
83103;SDS011;72975;48.134;11.630;2023-10-31T04:42:56;2.35;;;0.82;;
83103;SDS011;72975;48.134;11.630;2023-10-31T04:45:26;1.10;;;0.43;;
83103;SDS011;72975;48.134;11.630;2023-10-31T04:47:58;2.65;;;1.02;;
83103;SDS011;72975;48.134;11.630;2023-10-31T04:50:27;6.55;;;1.33;;
83103;SDS011;72975;48.134;11.630;2023-10-31T04:52:54;2.42;;;0.75;;
83103;SDS011;72975;48.134;11.630;2023-10-31T04:55:31;1.92;;;0.93;;
83103;SDS011;72975;48.134;11.630;2023-10-31T04:57:58;1.85;;;0.93;;
83103;SDS011;72975;48.134;11.630;2023-10-31T05:00:31;3.22;;;1.10;;
83103;SDS011;72975;48.134;11.630;2023-10-31T05:02:58;2.42;;;0.80;;
83103;SDS011;72975;48.134;11.630;2023-10-31T05:05:27;2.45;;;0.73;;
83103;SDS011;72975;48.134;11.630;2023-10-31T05:07:54;2.35;;;1.13;;
83103;SDS011;72975;48.134;11.630;2023-10-31T05:10:21;2.53;;;0.93;;
83103;SDS011;72975;48.134;11.630;2023-10-31T05:12:50;2.72;;;0.95;;
83103;SDS011;72975;48.134;11.630;2023-10-31T05:15:18;2.08;;;0.95;;
83103;SDS011;72975;48.134;11.630;2023-10-31T05:17:47;1.90;;;0.98;;
83103;SDS011;72975;48.134;11.630;2023-10-31T05:20:16;2.40;;;0.80;;
83103;SDS011;72975;48.134;11.630;2023-10-31T05:22:43;1.80;;;0.98;;
83103;SDS011;72975;48.134;11.630;2023-10-31T05:25:12;1.70;;;0.90;;
83103;SDS011;72975;48.134;11.630;2023-10-31T05:27:49;1.60;;;0.90;;
83103;SDS011;72975;48.134;11.630;2023-10-31T05:30:21;3.30;;;0.85;;
83103;SDS011;72975;48.134;11.630;2023-10-31T05:32:55;1.83;;;0.82;;
83103;SDS011;72975;48.134;11.630;2023-10-31T05:35:24;4.35;;;1.35;;
83103;SDS011;72975;48.134;11.630;2023-10-31T05:37:54;2.95;;;0.80;;
83103;SDS011;72975;48.134;11.630;2023-10-31T05:40:23;3.85;;;1.73;;
83103;SDS011;72975;48.134;11.630;2023-10-31T05:42:57;2.83;;;1.02;;
83103;SDS011;72975;48.134;11.630;2023-10-31T05:45:24;3.75;;;1.00;;
83103;SDS011;72975;48.134;11.630;2023-10-31T05:47:52;2.60;;;0.90;;
83103;SDS011;72975;48.134;11.630;2023-10-31T05:50:19;2.10;;;0.75;;
83103;SDS011;72975;48.134;11.630;2023-10-31T05:52:55;2.05;;;1.00;;
83103;SDS011;72975;48.134;11.630;2023-10-31T05:55:22;2.58;;;1.65;;
83103;SDS011;72975;48.134;11.630;2023-10-31T05:57:54;2.80;;;1.20;;
83103;SDS011;72975;48.134;11.630;2023-10-31T06:00:28;3.63;;;1.15;;
83103;SDS011;72975;48.134;11.630;2023-10-31T06:03:05;1.95;;;1.00;;
83103;SDS011;72975;48.134;11.630;2023-10-31T06:05:38;3.05;;;1.02;;
83103;SDS011;72975;48.134;11.630;2023-10-31T06:08:06;2.72;;;1.15;;
83103;SDS011;72975;48.134;11.630;2023-10-31T06:10:35;2.20;;;0.80;;
83103;SDS011;72975;48.134;11.630;2023-10-31T06:13:07;3.58;;;1.30;;
83103;SDS011;72975;48.134;11.630;2023-10-31T06:18:08;2.45;;;1.08;;
83103;SDS011;72975;48.134;11.630;2023-10-31T06:20:42;4.75;;;1.23;;
83103;SDS011;72975;48.134;11.630;2023-10-31T06:23:30;3.50;;;1.35;;
83103;SDS011;72975;48.134;11.630;2023-10-31T06:26:01;4.63;;;1.10;;
83103;SDS011;72975;48.134;11.630;2023-10-31T06:28:37;3.22;;;1.52;;
83103;SDS011;72975;48.134;11.630;2023-10-31T06:34:28;3.20;;;1.45;;
83103;SDS011;72975;48.134;11.630;2023-10-31T06:37:24;3.85;;;1.27;;
83103;SDS011;72975;48.134;11.630;2023-10-31T06:39:59;2.47;;;0.98;;
83103;SDS011;72975;48.134;11.630;2023-10-31T06:42:29;2.33;;;1.15;;
83103;SDS011;72975;48.134;11.630;2023-10-31T06:45:04;2.53;;;1.00;;
83103;SDS011;72975;48.134;11.630;2023-10-31T06:47:34;4.30;;;1.63;;
83103;SDS011;72975;48.134;11.630;2023-10-31T06:50:02;4.10;;;0.93;;
83103;SDS011;72975;48.134;11.630;2023-10-31T06:52:35;3.70;;;1.05;;
83103;SDS011;72975;48.134;11.630;2023-10-31T06:55:08;4.97;;;1.25;;
83103;SDS011;72975;48.134;11.630;2023-10-31T06:57:38;2.40;;;0.93;;
83103;SDS011;72975;48.134;11.630;2023-10-31T07:00:12;2.97;;;1.00;;
83103;SDS011;72975;48.134;11.630;2023-10-31T07:02:51;3.63;;;1.13;;
83103;SDS011;72975;48.134;11.630;2023-10-31T07:05:33;3.22;;;1.10;;
83103;SDS011;72975;48.134;11.630;2023-10-31T07:08:03;3.38;;;1.42;;
83103;SDS011;72975;48.134;11.630;2023-10-31T07:10:34;3.55;;;1.23;;
83103;SDS011;72975;48.134;11.630;2023-10-31T07:13:02;3.30;;;0.93;;
83103;SDS011;72975;48.134;11.630;2023-10-31T07:15:35;4.38;;;1.00;;
83103;SDS011;72975;48.134;11.630;2023-10-31T07:18:08;3.13;;;1.00;;
83103;SDS011;72975;48.134;11.630;2023-10-31T07:20:35;2.67;;;1.15;;
83103;SDS011;72975;48.134;11.630;2023-10-31T07:23:02;2.20;;;0.95;;
83103;SDS011;72975;48.134;11.630;2023-10-31T07:25:30;4.43;;;1.08;;
83103;SDS011;72975;48.134;11.630;2023-10-31T07:27:57;2.20;;;1.05;;
83103;SDS011;72975;48.134;11.630;2023-10-31T07:30:27;2.08;;;1.00;;
83103;SDS011;72975;48.134;11.630;2023-10-31T07:33:43;3.08;;;0.93;;
83103;SDS011;72975;48.134;11.630;2023-10-31T07:36:35;2.90;;;1.63;;
83103;SDS011;72975;48.134;11.630;2023-10-31T07:39:12;1.58;;;0.70;;
83103;SDS011;72975;48.134;11.630;2023-10-31T07:41:41;2.28;;;0.98;;
83103;SDS011;72975;48.134;11.630;2023-10-31T07:44:15;3.63;;;0.85;;
83103;SDS011;72975;48.134;11.630;2023-10-31T07:46:49;3.53;;;1.63;;
83103;SDS011;72975;48.134;11.630;2023-10-31T07:49:23;2.40;;;1.02;;
83103;SDS011;72975;48.134;11.630;2023-10-31T07:51:50;2.85;;;1.20;;
83103;SDS011;72975;48.134;11.630;2023-10-31T07:54:17;4.72;;;1.13;;
83103;SDS011;72975;48.134;11.630;2023-10-31T07:56:47;2.63;;;1.10;;
83103;SDS011;72975;48.134;11.630;2023-10-31T07:59:20;4.65;;;2.58;;
83103;SDS011;72975;48.134;11.630;2023-10-31T08:01:53;3.53;;;1.30;;
83103;SDS011;72975;48.134;11.630;2023-10-31T08:04:33;3.50;;;1.33;;
83103;SDS011;72975;48.134;11.630;2023-10-31T08:07:03;3.95;;;1.40;;
83103;SDS011;72975;48.134;11.630;2023-10-31T08:09:35;3.55;;;1.02;;
83103;SDS011;72975;48.134;11.630;2023-10-31T08:12:02;3.50;;;1.27;;
83103;SDS011;72975;48.134;11.630;2023-10-31T08:14:29;4.50;;;1.20;;
83103;SDS011;72975;48.134;11.630;2023-10-31T08:16:57;7.35;;;1.70;;
83103;SDS011;72975;48.134;11.630;2023-10-31T08:19:24;2.75;;;1.25;;
83103;SDS011;72975;48.134;11.630;2023-10-31T08:21:51;2.92;;;1.17;;
83103;SDS011;72975;48.134;11.630;2023-10-31T08:24:22;4.57;;;1.30;;
83103;SDS011;72975;48.134;11.630;2023-10-31T08:26:52;2.88;;;1.08;;
83103;SDS011;72975;48.134;11.630;2023-10-31T08:29:28;3.17;;;1.10;;
83103;SDS011;72975;48.134;11.630;2023-10-31T08:32:00;2.55;;;1.23;;
83103;SDS011;72975;48.134;11.630;2023-10-31T08:34:41;2.65;;;1.08;;
83103;SDS011;72975;48.134;11.630;2023-10-31T08:37:17;2.80;;;0.98;;
83103;SDS011;72975;48.134;11.630;2023-10-31T08:39:44;3.67;;;1.35;;
83103;SDS011;72975;48.134;11.630;2023-10-31T08:42:20;2.53;;;1.20;;
83103;SDS011;72975;48.134;11.630;2023-10-31T08:44:47;3.00;;;1.00;;
83103;SDS011;72975;48.134;11.630;2023-10-31T08:47:20;3.80;;;1.15;;
83103;SDS011;72975;48.134;11.630;2023-10-31T08:49:55;3.75;;;1.15;;
83103;SDS011;72975;48.134;11.630;2023-10-31T08:52:25;3.33;;;1.05;;
83103;SDS011;72975;48.134;11.630;2023-10-31T08:54:53;4.57;;;1.00;;
83103;SDS011;72975;48.134;11.630;2023-10-31T08:59:55;4.20;;;1.38;;
83103;SDS011;72975;48.134;11.630;2023-10-31T09:02:28;4.70;;;0.93;;
83103;SDS011;72975;48.134;11.630;2023-10-31T09:05:27;2.72;;;1.10;;
83103;SDS011;72975;48.134;11.630;2023-10-31T09:08:03;3.80;;;1.60;;
83103;SDS011;72975;48.134;11.630;2023-10-31T09:10:45;4.10;;;1.02;;
83103;SDS011;72975;48.134;11.630;2023-10-31T09:17:02;3.70;;;1.52;;
83103;SDS011;72975;48.134;11.630;2023-10-31T09:19:42;4.15;;;1.52;;
83103;SDS011;72975;48.134;11.630;2023-10-31T09:22:25;2.47;;;0.98;;
83103;SDS011;72975;48.134;11.630;2023-10-31T09:25:29;3.33;;;1.13;;
83103;SDS011;72975;48.134;11.630;2023-10-31T09:28:09;2.60;;;1.05;;
83103;SDS011;72975;48.134;11.630;2023-10-31T09:42:10;3.42;;;1.73;;
83103;SDS011;72975;48.134;11.630;2023-10-31T09:45:00;3.47;;;1.48;;
83103;SDS011;72975;48.134;11.630;2023-10-31T09:47:59;3.35;;;1.10;;
83103;SDS011;72975;48.134;11.630;2023-10-31T09:51:07;3.80;;;1.30;;
83103;SDS011;72975;48.134;11.630;2023-10-31T09:53:58;2.90;;;1.27;;
83103;SDS011;72975;48.134;11.630;2023-10-31T09:56:36;3.50;;;1.58;;
83103;SDS011;72975;48.134;11.630;2023-10-31T09:59:43;4.05;;;1.23;;
83103;SDS011;72975;48.134;11.630;2023-10-31T10:02:57;3.55;;;1.42;;
83103;SDS011;72975;48.134;11.630;2023-10-31T10:09:25;3.60;;;1.20;;
83103;SDS011;72975;48.134;11.630;2023-10-31T10:12:28;6.22;;;1.73;;
83103;SDS011;72975;48.134;11.630;2023-10-31T10:15:29;3.10;;;1.20;;
83103;SDS011;72975;48.134;11.630;2023-10-31T10:18:24;5.43;;;1.50;;
83103;SDS011;72975;48.134;11.630;2023-10-31T10:24:23;4.00;;;1.30;;
83103;SDS011;72975;48.134;11.630;2023-10-31T10:27:39;4.22;;;1.65;;
83103;SDS011;72975;48.134;11.630;2023-10-31T10:33:54;4.25;;;1.02;;
83103;SDS011;72975;48.134;11.630;2023-10-31T10:37:09;4.78;;;1.65;;
83103;SDS011;72975;48.134;11.630;2023-10-31T10:43:28;4.55;;;1.02;;
83103;SDS011;72975;48.134;11.630;2023-10-31T10:46:38;5.97;;;1.13;;
83103;SDS011;72975;48.134;11.630;2023-10-31T10:49:51;5.50;;;1.23;;
83103;SDS011;72975;48.134;11.630;2023-10-31T10:52:41;5.00;;;1.42;;
83103;SDS011;72975;48.134;11.630;2023-10-31T10:55:44;7.20;;;3.17;;
83103;SDS011;72975;48.134;11.630;2023-10-31T11:01:41;8.48;;;1.70;;
83103;SDS011;72975;48.134;11.630;2023-10-31T11:04:18;7.07;;;2.65;;
83103;SDS011;72975;48.134;11.630;2023-10-31T11:06:48;6.93;;;2.05;;
83103;SDS011;72975;48.134;11.630;2023-10-31T11:09:16;4.45;;;1.27;;
83103;SDS011;72975;48.134;11.630;2023-10-31T11:11:57;4.05;;;1.75;;
83103;SDS011;72975;48.134;11.630;2023-10-31T11:14:51;6.22;;;2.05;;
83103;SDS011;72975;48.134;11.630;2023-10-31T11:22:01;3.50;;;1.35;;
83103;SDS011;72975;48.134;11.630;2023-10-31T11:25:30;3.17;;;1.27;;
83103;SDS011;72975;48.134;11.630;2023-10-31T11:28:39;7.47;;;1.60;;
83103;SDS011;72975;48.134;11.630;2023-10-31T11:34:59;3.08;;;1.48;;
83103;SDS011;72975;48.134;11.630;2023-10-31T11:38:04;2.50;;;1.15;;
83103;SDS011;72975;48.134;11.630;2023-10-31T11:46:19;5.25;;;1.45;;
83103;SDS011;72975;48.134;11.630;2023-10-31T11:55:28;3.60;;;1.40;;
83103;SDS011;72975;48.134;11.630;2023-10-31T12:01:44;4.88;;;1.45;;
83103;SDS011;72975;48.134;11.630;2023-10-31T12:16:46;2.50;;;1.10;;
83103;SDS011;72975;48.134;11.630;2023-10-31T12:19:23;3.75;;;1.02;;
83103;SDS011;72975;48.134;11.630;2023-10-31T12:22:41;2.47;;;0.98;;
83103;SDS011;72975;48.134;11.630;2023-10-31T12:25:30;6.18;;;1.77;;
83103;SDS011;72975;48.134;11.630;2023-10-31T12:28:33;3.90;;;1.38;;
83103;SDS011;72975;48.134;11.630;2023-10-31T12:31:52;2.38;;;1.25;;
83103;SDS011;72975;48.134;11.630;2023-10-31T12:34:31;3.05;;;1.02;;
83103;SDS011;72975;48.134;11.630;2023-10-31T12:37:06;2.00;;;0.77;;
83103;SDS011;72975;48.134;11.630;2023-10-31T12:39:48;2.15;;;0.93;;
83103;SDS011;72975;48.134;11.630;2023-10-31T12:42:37;3.90;;;1.23;;
83103;SDS011;72975;48.134;11.630;2023-10-31T12:45:27;2.65;;;1.10;;
83103;SDS011;72975;48.134;11.630;2023-10-31T12:48:28;2.08;;;0.98;;
83103;SDS011;72975;48.134;11.630;2023-10-31T12:51:37;2.85;;;1.13;;
83103;SDS011;72975;48.134;11.630;2023-10-31T12:54:50;3.67;;;1.05;;
83103;SDS011;72975;48.134;11.630;2023-10-31T12:57:38;3.15;;;1.40;;
83103;SDS011;72975;48.134;11.630;2023-10-31T13:00:09;4.05;;;1.50;;
83103;SDS011;72975;48.134;11.630;2023-10-31T13:03:07;2.15;;;0.98;;
83103;SDS011;72975;48.134;11.630;2023-10-31T13:05:52;1.95;;;0.73;;
83103;SDS011;72975;48.134;11.630;2023-10-31T13:09:03;2.05;;;0.98;;
83103;SDS011;72975;48.134;11.630;2023-10-31T13:11:40;4.03;;;1.33;;
83103;SDS011;72975;48.134;11.630;2023-10-31T13:14:31;2.10;;;0.73;;
83103;SDS011;72975;48.134;11.630;2023-10-31T13:20:51;2.40;;;1.05;;
83103;SDS011;72975;48.134;11.630;2023-10-31T13:23:41;2.63;;;1.98;;
83103;SDS011;72975;48.134;11.630;2023-10-31T13:29:31;2.22;;;0.95;;
83103;SDS011;72975;48.134;11.630;2023-10-31T13:32:37;2.80;;;1.20;;
83103;SDS011;72975;48.134;11.630;2023-10-31T13:35:33;2.42;;;0.80;;
83103;SDS011;72975;48.134;11.630;2023-10-31T13:38:12;3.40;;;1.20;;
83103;SDS011;72975;48.134;11.630;2023-10-31T13:40:49;3.00;;;0.90;;
83103;SDS011;72975;48.134;11.630;2023-10-31T13:43:43;2.08;;;0.90;;
83103;SDS011;72975;48.134;11.630;2023-10-31T13:46:47;1.90;;;0.93;;
83103;SDS011;72975;48.134;11.630;2023-10-31T13:49:56;3.08;;;1.15;;
83103;SDS011;72975;48.134;11.630;2023-10-31T13:55:57;2.20;;;0.90;;
83103;SDS011;72975;48.134;11.630;2023-10-31T13:58:54;2.42;;;0.90;;
83103;SDS011;72975;48.134;11.630;2023-10-31T14:05:19;1.95;;;0.88;;
83103;SDS011;72975;48.134;11.630;2023-10-31T14:07:55;3.88;;;1.13;;
83103;SDS011;72975;48.134;11.630;2023-10-31T14:10:31;2.35;;;1.02;;
83103;SDS011;72975;48.134;11.630;2023-10-31T14:13:16;2.15;;;1.00;;
83103;SDS011;72975;48.134;11.630;2023-10-31T14:16:18;3.85;;;1.00;;
83103;SDS011;72975;48.134;11.630;2023-10-31T14:18:46;1.95;;;0.90;;
83103;SDS011;72975;48.134;11.630;2023-10-31T14:21:32;2.70;;;1.13;;
83103;SDS011;72975;48.134;11.630;2023-10-31T14:27:12;2.55;;;0.90;;
83103;SDS011;72975;48.134;11.630;2023-10-31T14:30:01;1.88;;;1.02;;
83103;SDS011;72975;48.134;11.630;2023-10-31T14:32:37;2.58;;;0.95;;
83103;SDS011;72975;48.134;11.630;2023-10-31T14:35:08;3.67;;;0.98;;
83103;SDS011;72975;48.134;11.630;2023-10-31T14:38:30;2.40;;;1.00;;
83103;SDS011;72975;48.134;11.630;2023-10-31T14:41:19;2.55;;;1.15;;
83103;SDS011;72975;48.134;11.630;2023-10-31T14:43:57;2.35;;;1.40;;
83103;SDS011;72975;48.134;11.630;2023-10-31T14:46:37;3.67;;;1.15;;
83103;SDS011;72975;48.134;11.630;2023-10-31T14:49:20;2.63;;;1.17;;
83103;SDS011;72975;48.134;11.630;2023-10-31T14:52:20;2.40;;;0.93;;
83103;SDS011;72975;48.134;11.630;2023-10-31T14:54:55;2.85;;;1.15;;
83103;SDS011;72975;48.134;11.630;2023-10-31T14:58:04;2.90;;;1.25;;
83103;SDS011;72975;48.134;11.630;2023-10-31T15:00:43;2.45;;;0.90;;
83103;SDS011;72975;48.134;11.630;2023-10-31T15:03:26;2.47;;;0.90;;
83103;SDS011;72975;48.134;11.630;2023-10-31T15:05:59;2.28;;;1.23;;
83103;SDS011;72975;48.134;11.630;2023-10-31T15:08:29;3.28;;;1.23;;
83103;SDS011;72975;48.134;11.630;2023-10-31T15:10:56;3.63;;;1.20;;
83103;SDS011;72975;48.134;11.630;2023-10-31T15:13:23;3.92;;;1.40;;
83103;SDS011;72975;48.134;11.630;2023-10-31T15:15:50;2.75;;;1.20;;
83103;SDS011;72975;48.134;11.630;2023-10-31T15:18:19;2.30;;;1.02;;
83103;SDS011;72975;48.134;11.630;2023-10-31T15:20:54;3.97;;;1.40;;
83103;SDS011;72975;48.134;11.630;2023-10-31T15:23:23;2.88;;;1.30;;
83103;SDS011;72975;48.134;11.630;2023-10-31T15:26:02;3.90;;;1.40;;
83103;SDS011;72975;48.134;11.630;2023-10-31T15:28:47;7.18;;;1.63;;
83103;SDS011;72975;48.134;11.630;2023-10-31T15:31:35;3.15;;;1.30;;
83103;SDS011;72975;48.134;11.630;2023-10-31T15:34:16;4.65;;;2.13;;
83103;SDS011;72975;48.134;11.630;2023-10-31T15:36:55;3.92;;;1.10;;
83103;SDS011;72975;48.134;11.630;2023-10-31T15:39:36;2.75;;;1.02;;
83103;SDS011;72975;48.134;11.630;2023-10-31T15:42:17;4.60;;;1.33;;
83103;SDS011;72975;48.134;11.630;2023-10-31T15:45:08;6.07;;;2.38;;
83103;SDS011;72975;48.134;11.630;2023-10-31T15:47:36;3.03;;;1.52;;
83103;SDS011;72975;48.134;11.630;2023-10-31T15:50:14;3.65;;;1.30;;
83103;SDS011;72975;48.134;11.630;2023-10-31T15:53:15;4.28;;;1.38;;
83103;SDS011;72975;48.134;11.630;2023-10-31T15:56:03;9.27;;;2.38;;
83103;SDS011;72975;48.134;11.630;2023-10-31T15:58:49;4.93;;;1.38;;
83103;SDS011;72975;48.134;11.630;2023-10-31T16:01:28;2.72;;;1.17;;
83103;SDS011;72975;48.134;11.630;2023-10-31T16:04:01;9.13;;;2.75;;
83103;SDS011;72975;48.134;11.630;2023-10-31T16:06:34;5.85;;;1.50;;
83103;SDS011;72975;48.134;11.630;2023-10-31T16:09:04;3.75;;;1.50;;
83103;SDS011;72975;48.134;11.630;2023-10-31T16:11:39;3.38;;;1.42;;
83103;SDS011;72975;48.134;11.630;2023-10-31T16:14:09;3.90;;;1.35;;
83103;SDS011;72975;48.134;11.630;2023-10-31T16:16:48;2.38;;;1.13;;
83103;SDS011;72975;48.134;11.630;2023-10-31T16:19:47;3.00;;;1.27;;
83103;SDS011;72975;48.134;11.630;2023-10-31T16:22:21;5.15;;;1.30;;
83103;SDS011;72975;48.134;11.630;2023-10-31T16:24:49;3.47;;;1.13;;
83103;SDS011;72975;48.134;11.630;2023-10-31T16:27:21;3.97;;;1.60;;
83103;SDS011;72975;48.134;11.630;2023-10-31T16:30:00;2.40;;;1.10;;
83103;SDS011;72975;48.134;11.630;2023-10-31T16:33:01;3.53;;;1.50;;
83103;SDS011;72975;48.134;11.630;2023-10-31T16:36:04;6.35;;;1.50;;
83103;SDS011;72975;48.134;11.630;2023-10-31T16:38:48;3.40;;;1.52;;
83103;SDS011;72975;48.134;11.630;2023-10-31T16:41:32;4.40;;;1.17;;
83103;SDS011;72975;48.134;11.630;2023-10-31T16:44:03;3.67;;;1.52;;
83103;SDS011;72975;48.134;11.630;2023-10-31T16:46:44;4.13;;;1.20;;
83103;SDS011;72975;48.134;11.630;2023-10-31T16:49:15;4.45;;;1.10;;
83103;SDS011;72975;48.134;11.630;2023-10-31T16:51:53;2.92;;;1.17;;
83103;SDS011;72975;48.134;11.630;2023-10-31T16:54:39;3.10;;;1.15;;
83103;SDS011;72975;48.134;11.630;2023-10-31T16:57:19;2.33;;;1.23;;
83103;SDS011;72975;48.134;11.630;2023-10-31T17:00:07;2.92;;;1.45;;
83103;SDS011;72975;48.134;11.630;2023-10-31T17:02:55;2.72;;;1.17;;
83103;SDS011;72975;48.134;11.630;2023-10-31T17:05:24;5.00;;;1.20;;